createdAt,value
2023-03-12T00:02:17.806Z,94822.75
2023-03-12T00:04:44.392Z,94821.97
2023-03-12T00:07:10.909Z,94817.03
2023-03-12T00:09:40.353Z,94814.13
2023-03-12T00:12:07.533Z,94810.31
2023-03-12T00:14:34.093Z,94810.19
2023-03-12T00:17:00.663Z,94813.22
2023-03-12T00:19:27.628Z,94817.78
2023-03-12T00:21:54.198Z,94805.09
2023-03-12T00:24:20.746Z,94811.38
2023-03-12T00:26:47.418Z,94806.50
2023-03-12T00:29:13.954Z,94816.22
2023-03-12T00:31:40.576Z,94807.63
2023-03-12T00:34:07.351Z,94820.91
2023-03-12T00:36:34.211Z,94815.44
2023-03-12T00:39:01.415Z,94817.75
2023-03-12T00:41:28.728Z,94816.66
2023-03-12T00:43:55.303Z,94815.44
2023-03-12T00:46:21.906Z,94812.97
2023-03-12T00:48:48.911Z,94810.94
2023-03-12T00:51:15.905Z,94807.38
2023-03-12T00:53:42.636Z,94809.94
2023-03-12T00:56:09.369Z,94814.88
2023-03-12T00:58:36.354Z,94809.69
2023-03-12T01:01:03.010Z,94810.78
2023-03-12T01:03:29.706Z,94798.50
2023-03-12T01:05:56.224Z,94803.81
2023-03-12T01:08:24.112Z,94806.41
2023-03-12T01:10:51.179Z,94799.19
2023-03-12T01:13:18.065Z,94811.34
2023-03-12T01:15:44.640Z,94816.97
2023-03-12T01:18:11.515Z,94805.50
2023-03-12T01:20:38.603Z,94811.81
2023-03-12T01:23:05.139Z,94814.41
2023-03-12T01:25:33.930Z,94817.72
2023-03-12T01:28:00.734Z,94808.41
2023-03-12T01:30:27.501Z,94808.56
2023-03-12T01:32:54.145Z,94808.69
2023-03-12T01:35:20.723Z,94805.66
2023-03-12T01:37:47.268Z,94817.59
2023-03-12T01:40:19.644Z,94813.47
2023-03-12T01:42:57.597Z,94814.69
2023-03-12T01:46:02.292Z,94816.59
2023-03-12T01:48:34.395Z,94814.00
2023-03-12T01:51:02.514Z,94821.28
2023-03-12T01:53:30.235Z,94807.03
2023-03-12T01:56:00.132Z,94803.06
2023-03-12T01:58:31.697Z,94806.75
2023-03-12T02:00:58.343Z,94807.19
2023-03-12T02:03:25.033Z,94804.00
2023-03-12T02:05:58.150Z,94805.53
2023-03-12T02:08:24.835Z,94811.69
2023-03-12T02:10:51.443Z,94812.66
2023-03-12T02:13:18.484Z,94819.88
2023-03-12T02:15:47.578Z,94830.09
2023-03-12T02:18:18.153Z,94835.16
2023-03-12T02:21:04.435Z,94842.09
2023-03-12T02:23:41.353Z,94851.38
2023-03-12T02:26:09.837Z,94845.38
2023-03-12T02:28:43.800Z,94845.88
2023-03-12T02:31:14.745Z,94846.72
2023-03-12T02:33:41.824Z,94849.44
2023-03-12T02:36:09.341Z,94850.66
2023-03-12T02:38:44.956Z,94846.31
2023-03-12T02:41:31.608Z,94848.09
2023-03-12T02:44:09.327Z,94853.41
2023-03-12T02:46:43.825Z,94847.41
2023-03-12T02:49:12.581Z,94846.88
2023-03-12T02:51:40.263Z,94850.03
2023-03-12T02:54:07.251Z,94835.66
2023-03-12T02:56:34.536Z,94849.22
2023-03-12T02:59:04.313Z,94853.47
2023-03-12T03:01:34.988Z,94853.22
2023-03-12T03:04:03.014Z,94850.22
2023-03-12T03:06:30.088Z,94852.97
2023-03-12T03:08:56.713Z,94847.50
2023-03-12T03:11:24.665Z,94846.00
2023-03-12T03:13:55.155Z,94846.41
2023-03-12T03:16:23.125Z,94852.16
2023-03-12T03:18:50.541Z,94846.97
2023-03-12T03:21:17.943Z,94858.19
2023-03-12T03:23:49.893Z,94860.63
2023-03-12T03:26:20.177Z,94861.75
2023-03-12T03:28:46.796Z,94845.88
2023-03-12T03:31:14.788Z,94854.66
2023-03-12T03:33:42.631Z,94858.75
2023-03-12T03:36:13.924Z,94850.69
2023-03-12T03:38:49.326Z,94852.56
2023-03-12T03:41:20.818Z,94854.66
2023-03-12T03:43:47.957Z,94859.28
2023-03-12T03:46:18.251Z,94856.16
2023-03-12T03:48:50.854Z,94857.38
2023-03-12T03:51:17.552Z,94861.75
2023-03-12T03:53:47.290Z,94863.66
2023-03-12T03:56:15.772Z,94865.19
2023-03-12T03:58:46.922Z,94868.47
2023-03-12T04:01:15.702Z,94874.91
2023-03-12T04:03:44.136Z,94876.66
2023-03-12T04:06:10.843Z,94863.66
2023-03-12T04:08:38.440Z,94873.41
2023-03-12T04:11:10.299Z,94876.84
2023-03-12T04:13:37.682Z,94889.16
2023-03-12T04:16:05.384Z,94882.31
2023-03-12T04:18:32.293Z,94880.94
2023-03-12T04:21:00.492Z,94877.78
2023-03-12T04:23:27.515Z,94884.38
2023-03-12T04:25:54.624Z,94886.69
2023-03-12T04:28:21.467Z,94881.75
2023-03-12T04:31:15.090Z,94882.28
2023-03-12T04:33:47.956Z,94888.44
2023-03-12T04:36:16.380Z,94886.53
2023-03-12T04:38:45.590Z,94886.25
2023-03-12T04:41:16.426Z,94895.97
2023-03-12T04:43:48.128Z,94886.53
2023-03-12T04:46:16.252Z,94881.16
2023-03-12T04:48:43.959Z,94883.09
2023-03-12T04:51:11.410Z,94885.13
2023-03-12T04:53:38.442Z,94880.88
2023-03-12T04:56:05.472Z,94880.88
2023-03-12T04:58:32.835Z,94873.75
2023-03-12T05:00:59.588Z,94872.66
2023-03-12T05:03:26.260Z,94872.09
2023-03-12T05:05:53.524Z,94865.94
2023-03-12T05:08:20.268Z,94864.69
2023-03-12T05:10:46.920Z,94857.53
2023-03-12T05:13:18.733Z,94868.25
2023-03-12T05:15:47.438Z,94857.16
2023-03-12T05:18:14.510Z,94859.47
2023-03-12T05:20:41.098Z,94860.59
2023-03-12T05:23:07.871Z,94857.69
2023-03-12T05:25:39.012Z,94850.44
2023-03-12T05:28:05.676Z,94853.50
2023-03-12T05:30:32.320Z,94850.72
2023-03-12T05:32:59.291Z,94856.59
2023-03-12T05:35:26.064Z,94859.34
2023-03-12T05:37:52.581Z,94868.38
2023-03-12T05:40:19.202Z,94860.84
2023-03-12T05:42:45.824Z,94865.06
2023-03-12T05:45:12.851Z,94869.78
2023-03-12T05:47:43.705Z,94878.25
2023-03-12T05:50:11.457Z,94871.03
2023-03-12T05:52:37.998Z,94883.09
2023-03-12T05:55:05.191Z,94876.47
2023-03-12T05:57:31.775Z,94878.88
2023-03-12T06:00:00.013Z,94884.69
2023-03-12T06:02:26.764Z,94881.34
2023-03-12T06:04:53.632Z,94884.28
2023-03-12T06:07:20.305Z,94881.63
2023-03-12T06:09:46.885Z,94883.06
2023-03-12T06:12:14.434Z,94876.00
2023-03-12T06:14:41.111Z,94867.34
2023-03-12T06:17:07.683Z,94865.66
2023-03-12T06:19:34.551Z,94865.78
2023-03-12T06:22:01.287Z,94853.66
2023-03-12T06:24:27.960Z,94849.59
2023-03-12T06:26:59.971Z,94858.84
2023-03-12T06:29:26.483Z,94858.34
2023-03-12T06:31:53.331Z,94855.66
2023-03-12T06:34:20.178Z,94856.09
2023-03-12T06:36:46.809Z,94860.19
2023-03-12T06:39:13.416Z,94867.94
2023-03-12T06:41:41.424Z,94868.59
2023-03-12T06:44:08.027Z,94878.47
2023-03-12T06:46:34.696Z,94873.09
2023-03-12T06:49:01.282Z,94874.69
2023-03-12T06:51:27.876Z,94877.94
2023-03-12T06:53:54.471Z,94878.22
2023-03-12T06:56:21.089Z,94879.63
2023-03-12T06:58:47.612Z,94893.19
2023-03-12T07:01:14.401Z,94893.66
2023-03-12T07:03:40.977Z,94886.97
2023-03-12T07:06:17.372Z,94896.59
2023-03-12T07:08:44.320Z,94890.97
2023-03-12T07:11:11.665Z,94893.16
2023-03-12T07:13:38.252Z,94895.91
2023-03-12T07:16:05.310Z,94897.28
2023-03-12T07:18:31.921Z,94890.69
2023-03-12T07:20:58.488Z,94892.72
2023-03-12T07:23:25.144Z,94893.50
2023-03-12T07:25:52.117Z,94888.44
2023-03-12T07:28:20.143Z,94890.22
2023-03-12T07:30:50.709Z,94888.66
2023-03-12T07:33:21.727Z,94883.72
2023-03-12T07:35:51.414Z,94886.28
2023-03-12T07:38:18.464Z,94890.31
2023-03-12T07:40:45.058Z,94886.16
2023-03-12T07:43:12.677Z,94891.38
2023-03-12T07:45:41.048Z,94889.06
2023-03-12T07:48:08.475Z,94890.59
2023-03-12T07:50:36.316Z,94893.94
2023-03-12T07:53:04.429Z,94896.53
2023-03-12T07:55:31.943Z,94888.75
2023-03-12T07:57:59.074Z,94884.72
2023-03-12T08:00:26.663Z,94886.38
2023-03-12T08:02:54.887Z,94895.00
2023-03-12T08:05:24.645Z,94901.06
2023-03-12T08:07:52.369Z,94903.97
2023-03-12T08:10:19.882Z,94905.56
2023-03-12T08:12:46.688Z,94905.75
2023-03-12T08:15:13.653Z,94911.13
2023-03-12T08:17:40.580Z,94923.19
2023-03-12T08:20:09.884Z,94926.31
2023-03-12T08:22:37.068Z,94917.22
2023-03-12T08:25:04.720Z,94907.88
2023-03-12T08:27:31.315Z,94910.53
2023-03-12T08:29:58.088Z,94920.31
2023-03-12T08:32:24.974Z,94913.09
2023-03-12T08:34:51.606Z,94917.63
2023-03-12T08:37:18.409Z,94924.16
2023-03-12T08:39:45.167Z,94932.34
2023-03-12T08:42:11.741Z,94933.41
2023-03-12T08:44:38.244Z,94931.03
2023-03-12T08:47:04.982Z,94937.16
2023-03-12T08:49:31.586Z,94938.81
2023-03-12T08:51:58.115Z,94937.31
2023-03-12T08:54:24.694Z,94941.94
2023-03-12T08:56:52.086Z,94937.97
2023-03-12T08:59:20.403Z,94936.38
2023-03-12T09:01:47.356Z,94933.47
2023-03-12T09:04:13.961Z,94943.88
2023-03-12T09:06:41.160Z,94939.19
2023-03-12T09:09:08.963Z,94934.78
2023-03-12T09:11:39.878Z,94944.34
2023-03-12T09:15:01.113Z,94943.75
2023-03-12T09:16:53.888Z,94943.97
2023-03-12T09:19:20.992Z,94948.78
2023-03-12T09:21:47.628Z,94946.22
2023-03-12T09:24:14.150Z,94948.78
2023-03-12T09:26:40.683Z,94952.78
2023-03-12T09:29:07.226Z,94949.47
2023-03-12T09:31:34.584Z,94953.00
2023-03-12T09:34:01.134Z,94953.50
2023-03-12T09:36:28.122Z,94968.31
2023-03-12T09:38:55.143Z,94965.53
2023-03-12T09:41:35.293Z,94968.66
2023-03-12T09:44:09.210Z,94963.66
2023-03-12T09:46:47.319Z,94958.28
2023-03-12T09:49:32.791Z,94961.81
2023-03-12T09:52:02.422Z,94957.13
2023-03-12T09:54:47.369Z,94956.13
2023-03-12T09:57:23.624Z,94958.19
2023-03-12T09:59:52.146Z,94958.34
2023-03-12T10:02:46.424Z,94958.97
2023-03-12T10:05:24.125Z,94959.19
2023-03-12T10:07:57.748Z,94962.41
2023-03-12T10:10:50.462Z,94953.88
2023-03-12T10:13:38.925Z,94952.91
2023-03-12T10:16:17.684Z,94956.13
2023-03-12T10:18:45.822Z,94958.47
2023-03-12T10:21:25.332Z,94964.53
2023-03-12T10:24:07.492Z,94964.91
2023-03-12T10:26:44.431Z,94966.19
2023-03-12T10:29:20.324Z,94955.25
2023-03-12T10:32:00.142Z,94959.19
2023-03-12T10:34:40.194Z,94954.78
2023-03-12T10:37:32.687Z,94952.47
2023-03-12T10:40:02.378Z,94952.28
2023-03-12T10:42:30.130Z,94953.78
2023-03-12T10:45:15.191Z,94950.72
2023-03-12T10:47:44.256Z,94951.63
2023-03-12T10:50:23.760Z,94953.53
2023-03-12T10:52:52.965Z,94955.97
2023-03-12T10:55:21.505Z,94947.56
2023-03-12T10:57:49.113Z,94953.81
2023-03-12T11:00:27.435Z,94955.78
2023-03-12T11:03:03.638Z,94953.88
2023-03-12T11:05:48.754Z,94952.25
2023-03-12T11:08:37.133Z,94957.78
2023-03-12T11:11:05.308Z,94957.09
2023-03-12T11:13:38.063Z,94958.63
2023-03-12T11:16:16.876Z,94952.91
2023-03-12T11:18:57.089Z,94952.84
2023-03-12T11:21:23.665Z,94942.63
2023-03-12T11:23:56.360Z,94943.00
2023-03-12T11:26:26.084Z,94933.66
2023-03-12T11:29:01.141Z,94930.22
2023-03-12T11:31:33.716Z,94929.41
2023-03-12T11:34:05.448Z,94938.09
2023-03-12T11:36:45.864Z,94936.78
2023-03-12T11:39:34.336Z,94931.41
2023-03-12T11:42:15.604Z,94932.38
2023-03-12T11:44:42.081Z,94922.38
2023-03-12T11:47:56.340Z,94920.19
2023-03-12T11:50:34.923Z,94920.44
2023-03-12T11:53:12.890Z,94923.63
2023-03-12T11:55:55.342Z,94921.34
2023-03-12T11:59:00.159Z,94920.19
2023-03-12T12:01:41.866Z,94922.97
2023-03-12T12:04:33.992Z,94910.94
2023-03-12T12:07:11.402Z,94908.91
2023-03-12T12:10:06.138Z,94904.22
2023-03-12T12:12:51.447Z,94913.50
2023-03-12T12:15:49.793Z,94911.81
2023-03-12T12:18:46.122Z,94924.47
2023-03-12T12:21:30.919Z,94913.41
2023-03-12T12:24:18.491Z,94918.69
2023-03-12T12:26:51.389Z,94919.59
2023-03-12T12:29:17.922Z,94908.09
2023-03-12T12:31:53.003Z,94914.00
2023-03-12T12:34:31.572Z,94917.13
2023-03-12T12:37:23.151Z,94921.19
2023-03-12T12:40:25.787Z,94918.06
2023-03-12T12:42:55.475Z,94911.97
2023-03-12T12:45:24.579Z,94912.47
2023-03-12T12:47:59.097Z,94911.28
2023-03-12T12:50:30.206Z,94912.47
2023-03-12T12:53:10.749Z,94908.50
2023-03-12T12:56:06.973Z,94904.88
2023-03-12T12:59:03.411Z,94907.22
2023-03-12T13:01:32.549Z,94904.28
2023-03-12T13:04:24.752Z,94908.44
2023-03-12T13:07:12.425Z,94899.94
2023-03-12T13:09:45.900Z,94904.56
2023-03-12T13:12:36.007Z,94899.53
2023-03-12T13:15:28.013Z,94899.56
2023-03-12T13:18:28.528Z,94903.16
2023-03-12T13:20:55.008Z,94903.47
2023-03-12T13:23:34.588Z,94899.16
2023-03-12T13:26:08.804Z,94897.28
2023-03-12T13:29:11.385Z,94898.75
2023-03-12T13:31:41.823Z,94905.72
2023-03-12T13:34:17.487Z,94905.75
2023-03-12T13:36:50.501Z,94902.66
2023-03-12T13:39:17.167Z,94909.19
2023-03-12T13:41:52.119Z,94903.00
2023-03-12T13:44:31.158Z,94909.84
2023-03-12T13:47:23.049Z,94904.72
2023-03-12T13:49:57.308Z,94911.38
2023-03-12T13:52:32.038Z,94919.63
2023-03-12T13:55:00.714Z,94920.91
2023-03-12T13:57:40.149Z,94915.03
2023-03-12T14:00:21.206Z,94925.69
2023-03-12T14:03:01.714Z,94925.56
2023-03-12T14:05:30.681Z,94923.28
2023-03-12T14:08:06.330Z,94915.44
2023-03-12T14:10:40.684Z,94914.28
2023-03-12T14:13:32.124Z,94910.09
2023-03-12T14:16:09.479Z,94913.19
2023-03-12T14:18:38.112Z,94912.53
2023-03-12T14:21:13.226Z,94896.63
2023-03-12T14:23:46.055Z,94894.66
2023-03-12T14:26:21.108Z,94907.41
2023-03-12T14:28:53.885Z,94905.25
2023-03-12T14:31:23.450Z,94903.22
2023-03-12T14:34:05.682Z,94897.28
2023-03-12T14:36:43.865Z,94906.84
2023-03-12T14:39:23.196Z,94901.50
2023-03-12T14:41:58.874Z,94902.19
2023-03-12T14:44:28.994Z,94902.31
2023-03-12T14:47:07.601Z,94895.88
2023-03-12T14:49:40.873Z,94887.81
2023-03-12T14:52:08.043Z,94890.41
2023-03-12T14:54:34.620Z,94895.31
2023-03-12T14:57:01.158Z,94891.81
2023-03-12T14:59:32.067Z,94896.34
2023-03-12T15:02:09.403Z,94896.41
2023-03-12T15:04:36.093Z,94898.97
2023-03-12T15:07:06.193Z,94904.47
2023-03-12T15:09:35.967Z,94898.91
2023-03-12T15:12:19.565Z,94899.38
2023-03-12T15:14:47.156Z,94909.09
2023-03-12T15:17:19.534Z,94899.84
2023-03-12T15:19:47.448Z,94912.47
2023-03-12T15:22:17.992Z,94920.06
2023-03-12T15:24:45.199Z,94921.53
2023-03-12T15:27:34.910Z,94927.06
2023-03-12T15:30:01.912Z,94923.53
2023-03-12T15:32:31.686Z,94924.91
2023-03-12T15:34:59.354Z,94910.38
2023-03-12T15:37:38.651Z,94919.16
2023-03-12T15:40:22.008Z,94921.91
2023-03-12T15:42:49.182Z,94909.44
2023-03-12T15:45:25.018Z,94903.88
2023-03-12T15:47:54.110Z,94903.91
2023-03-12T15:50:26.669Z,94909.56
2023-03-12T15:53:05.882Z,94914.22
2023-03-12T15:55:35.112Z,94908.66
2023-03-12T15:58:02.675Z,94907.75
2023-03-12T16:00:32.094Z,94916.34
2023-03-12T16:02:58.731Z,94917.09
2023-03-12T16:05:31.426Z,94917.31
2023-03-12T16:08:01.761Z,94911.19
2023-03-12T16:10:28.756Z,94910.34
2023-03-12T16:13:00.681Z,94916.81
2023-03-12T16:15:32.198Z,94915.72
2023-03-12T16:17:59.259Z,94916.75
2023-03-12T16:20:26.138Z,94913.47
2023-03-12T16:22:52.782Z,94920.97
2023-03-12T16:25:19.441Z,94914.81
2023-03-12T16:27:49.954Z,94916.00
2023-03-12T16:30:22.625Z,94921.25
2023-03-12T16:32:49.302Z,94920.78
2023-03-12T16:35:18.614Z,94918.47
2023-03-12T16:37:45.886Z,94921.19
2023-03-12T16:40:16.292Z,94927.25
2023-03-12T16:42:50.789Z,94927.28
2023-03-12T16:45:18.724Z,94936.16
2023-03-12T16:47:45.634Z,94932.88
2023-03-12T16:50:17.131Z,94937.13
2023-03-12T16:52:46.835Z,94932.03
2023-03-12T16:55:16.893Z,94939.53
2023-03-12T16:57:47.557Z,94941.41
2023-03-12T17:00:19.319Z,94937.72
2023-03-12T17:02:46.033Z,94943.00
2023-03-12T17:05:13.385Z,94952.41
2023-03-12T17:07:39.963Z,94948.94
2023-03-12T17:10:07.835Z,94950.53
2023-03-12T17:12:39.945Z,94972.56
2023-03-12T17:15:14.917Z,94961.47
2023-03-12T17:17:41.593Z,94960.69
2023-03-12T17:20:10.459Z,94974.13
2023-03-12T17:22:37.108Z,94970.38
2023-03-12T17:25:05.224Z,94968.25
2023-03-12T17:27:32.293Z,94962.59
2023-03-12T17:29:59.067Z,94969.47
2023-03-12T17:32:25.659Z,94969.06
2023-03-12T17:34:57.574Z,94974.03
2023-03-12T17:37:24.227Z,94975.06
2023-03-12T17:39:50.848Z,94982.16
2023-03-12T17:42:17.635Z,94977.03
2023-03-12T17:44:44.172Z,94974.47
2023-03-12T17:47:10.757Z,94972.97
2023-03-12T17:49:37.449Z,94972.13
2023-03-12T17:52:04.095Z,94970.53
2023-03-12T17:57:26.160Z,94964.38
2023-03-12T17:59:53.084Z,94969.69
2023-03-12T18:02:19.832Z,94976.19
2023-03-12T18:04:46.417Z,94976.44
2023-03-12T18:07:13.141Z,94977.94
2023-03-12T18:09:39.701Z,94980.53
2023-03-12T18:12:06.652Z,94981.41
2023-03-12T18:14:33.293Z,94980.63
2023-03-12T18:16:59.804Z,94995.72
2023-03-12T18:19:27.156Z,94990.75
2023-03-12T18:21:53.697Z,95000.13
2023-03-12T18:24:20.294Z,94993.13
2023-03-12T18:26:49.463Z,94983.81
2023-03-12T18:29:15.980Z,94990.31
2023-03-12T18:31:42.638Z,94984.16
2023-03-12T18:34:09.444Z,94987.19
2023-03-12T18:36:35.978Z,94978.97
2023-03-12T18:39:06.400Z,94979.78
2023-03-12T18:41:33.062Z,94980.91
2023-03-12T18:44:00.226Z,94984.97
2023-03-12T18:46:27.074Z,94989.16
2023-03-12T18:48:53.824Z,94985.75
2023-03-12T18:51:20.736Z,94986.59
2023-03-12T18:53:47.359Z,94984.00
2023-03-12T18:56:14.192Z,94990.88
2023-03-12T18:58:40.916Z,94997.09
2023-03-12T19:01:07.467Z,94991.22
2023-03-12T19:03:36.262Z,94991.59
2023-03-12T19:06:04.142Z,95003.72
2023-03-12T19:08:30.887Z,94998.19
2023-03-12T19:10:57.573Z,95001.03
2023-03-12T19:13:24.365Z,94999.13
2023-03-12T19:15:58.288Z,95011.09
2023-03-12T19:18:25.138Z,95009.16
2023-03-12T19:20:51.708Z,95008.00
2023-03-12T19:23:18.388Z,95017.31
2023-03-12T19:25:44.980Z,95015.84
2023-03-12T19:28:11.551Z,95015.88
2023-03-12T19:30:38.168Z,95030.78
2023-03-12T19:33:04.777Z,95028.25
2023-03-12T19:35:31.554Z,95031.41
2023-03-12T19:37:59.428Z,95037.63
2023-03-12T19:40:26.183Z,95027.13
2023-03-12T19:42:52.774Z,95028.72
2023-03-12T19:45:19.293Z,95025.59
2023-03-12T19:47:45.822Z,95022.78
2023-03-12T19:50:12.672Z,95025.41
2023-03-12T19:52:39.292Z,95030.09
2023-03-12T19:55:06.033Z,95029.28
2023-03-12T19:57:33.911Z,95023.00
2023-03-12T20:00:00.476Z,95026.75
2023-03-12T20:02:27.404Z,95024.94
2023-03-12T20:04:55.203Z,95024.63
2023-03-12T20:07:21.803Z,95042.31
2023-03-12T20:09:48.537Z,95046.09
2023-03-12T20:12:15.290Z,95054.63
2023-03-12T20:14:42.896Z,95046.09
2023-03-12T20:17:10.973Z,95045.63
2023-03-12T20:19:38.575Z,95045.78
2023-03-12T20:22:06.325Z,95057.09
2023-03-12T20:24:32.859Z,95053.50
2023-03-12T20:26:59.401Z,95054.19
2023-03-12T20:29:25.971Z,95055.97
2023-03-12T20:31:52.713Z,95060.28
2023-03-12T20:34:19.261Z,95052.38
2023-03-12T20:36:45.908Z,95053.03
2023-03-12T20:39:13.100Z,95043.88
2023-03-12T20:41:39.660Z,95042.38
2023-03-12T20:44:06.216Z,95046.59
2023-03-12T20:46:32.841Z,95044.63
2023-03-12T20:48:59.410Z,95045.63
2023-03-12T20:51:26.044Z,95041.16
2023-03-12T20:53:52.588Z,95041.34
2023-03-12T20:56:19.186Z,95037.44
2023-03-12T20:58:45.722Z,95047.94
2023-03-12T21:01:12.261Z,95031.19
2023-03-12T21:03:38.883Z,95044.47
2023-03-12T21:06:05.648Z,95042.00
2023-03-12T21:08:33.408Z,95044.63
2023-03-12T21:11:00.073Z,95054.66
2023-03-12T21:13:26.742Z,95045.97
2023-03-12T21:16:00.724Z,95047.13
2023-03-12T21:18:28.869Z,95049.03
2023-03-12T21:21:01.305Z,95047.56
2023-03-12T21:23:27.914Z,95049.22
2023-03-12T21:26:00.210Z,95058.75
2023-03-12T21:28:27.419Z,95059.09
2023-03-12T21:30:55.061Z,95057.63
2023-03-12T21:33:21.962Z,95059.41
2023-03-12T21:35:48.554Z,95071.91
2023-03-12T21:38:15.191Z,95067.31
2023-03-12T21:40:42.004Z,95074.03
2023-03-12T21:43:08.553Z,95077.78
2023-03-12T21:45:35.099Z,95071.91
2023-03-12T21:48:01.659Z,95081.09
2023-03-12T21:50:28.179Z,95072.91
2023-03-12T21:52:54.690Z,95074.69
2023-03-12T21:55:21.236Z,95078.34
2023-03-12T21:57:47.801Z,95069.81
2023-03-12T22:00:14.886Z,95073.41
2023-03-12T22:02:42.384Z,95069.81
2023-03-12T22:05:09.391Z,95070.78
2023-03-12T22:07:36.403Z,95053.72
2023-03-12T22:10:04.633Z,95057.84
2023-03-12T22:12:31.179Z,95059.66
2023-03-12T22:14:57.720Z,95058.97
2023-03-12T22:17:24.283Z,95059.34
2023-03-12T22:19:50.898Z,95064.41
2023-03-12T22:22:17.406Z,95054.09
2023-03-12T22:24:43.943Z,95056.22
2023-03-12T22:27:10.468Z,95061.13
2023-03-12T22:29:37.395Z,95060.63
2023-03-12T22:32:04.253Z,95066.72
2023-03-12T22:34:30.788Z,95058.66
2023-03-12T22:36:57.373Z,95060.31
2023-03-12T22:39:23.913Z,95047.84
2023-03-12T22:41:50.656Z,95054.41
2023-03-12T22:44:17.560Z,95051.47
2023-03-12T22:46:44.201Z,95044.44
2023-03-12T22:49:10.816Z,95036.22
2023-03-12T22:51:37.493Z,95040.50
2023-03-12T22:54:04.514Z,95035.91
2023-03-12T22:56:31.062Z,95032.63
2023-03-12T22:58:57.629Z,95032.94
2023-03-12T23:01:25.047Z,95025.56
2023-03-12T23:03:51.892Z,95026.22
2023-03-12T23:06:24.270Z,95024.28
2023-03-12T23:08:51.295Z,95022.13
2023-03-12T23:11:18.867Z,95020.84
2023-03-12T23:13:46.637Z,95011.00
2023-03-12T23:16:16.630Z,95013.78
2023-03-12T23:18:43.433Z,95004.28
2023-03-12T23:21:19.173Z,95000.50
2023-03-12T23:23:46.247Z,95003.31
2023-03-12T23:26:25.925Z,95000.84
2023-03-12T23:28:57.391Z,95001.03
2023-03-12T23:31:24.695Z,94999.38
2023-03-12T23:33:51.311Z,94996.09
2023-03-12T23:36:20.488Z,94992.16
2023-03-12T23:38:47.934Z,94992.16
2023-03-12T23:41:15.688Z,94988.22
2023-03-12T23:43:42.220Z,94989.72
2023-03-12T23:46:10.556Z,94988.41
2023-03-12T23:48:38.097Z,94974.31
2023-03-12T23:51:11.238Z,94973.00
2023-03-12T23:53:39.434Z,94974.47
2023-03-12T23:56:08.924Z,94968.09
2023-03-12T23:58:35.965Z,94959.91
